createdAt,value
2023-03-01T00:02:15.323Z,98686.97
2023-03-01T00:04:48.457Z,98690.56
2023-03-01T00:07:21.441Z,98683.41
2023-03-01T00:09:55.020Z,98685.94
2023-03-01T00:12:28.717Z,98681.25
2023-03-01T00:15:01.699Z,98683.44
2023-03-01T00:17:35.990Z,98684.50
2023-03-01T00:20:11.275Z,98686.31
2023-03-01T00:22:44.224Z,98685.63
2023-03-01T00:25:17.250Z,98694.25
2023-03-01T00:27:50.727Z,98692.78
2023-03-01T00:30:23.678Z,98685.81
2023-03-01T00:32:57.930Z,98678.84
2023-03-01T00:35:30.949Z,98675.25
2023-03-01T00:38:04.934Z,98680.28
2023-03-01T00:40:38.834Z,98676.31
2023-03-01T00:43:12.164Z,98680.63
2023-03-01T00:45:45.204Z,98687.94
2023-03-01T00:48:19.525Z,98683.47
2023-03-01T00:50:52.487Z,98683.31
2023-03-01T00:53:25.522Z,98684.41
2023-03-01T00:55:59.835Z,98676.13
2023-03-01T00:58:32.970Z,98679.19
2023-03-01T01:01:18.486Z,98678.84
2023-03-01T01:03:55.688Z,98678.84
2023-03-01T01:06:32.231Z,98675.59
2023-03-01T01:09:07.944Z,98683.31
2023-03-01T01:11:40.984Z,98675.22
2023-03-01T01:14:14.320Z,98675.94
2023-03-01T01:16:47.636Z,98671.97
2023-03-01T01:19:22.267Z,98660.50
2023-03-01T01:21:55.696Z,98661.88
2023-03-01T01:24:28.802Z,98659.69
2023-03-01T01:27:01.770Z,98656.84
2023-03-01T01:29:34.845Z,98657.53
2023-03-01T01:32:07.905Z,98654.63
2023-03-01T01:34:42.316Z,98659.84
2023-03-01T01:37:15.368Z,98648.72
2023-03-01T01:39:48.319Z,98646.06
2023-03-01T01:42:21.415Z,98639.06
2023-03-01T01:45:30.732Z,98644.22
2023-03-01T01:48:08.946Z,98637.97
2023-03-01T01:50:45.884Z,98634.53
2023-03-01T01:53:21.965Z,98635.53
2023-03-01T01:55:58.944Z,98635.50
2023-03-01T01:58:32.880Z,98628.66
2023-03-01T02:01:07.070Z,98628.81
2023-03-01T02:03:43.997Z,98622.75
2023-03-01T02:06:23.648Z,98618.84
2023-03-01T02:08:59.974Z,98612.00
2023-03-01T02:11:38.718Z,98612.38
2023-03-01T02:14:11.869Z,98598.28
2023-03-01T02:16:45.176Z,98602.59
2023-03-01T02:19:33.157Z,98601.91
2023-03-01T02:22:17.393Z,98602.22
2023-03-01T02:25:02.883Z,98606.09
2023-03-01T02:27:49.300Z,98594.78
2023-03-01T02:30:24.877Z,98593.47
2023-03-01T02:33:03.456Z,98586.16
2023-03-01T02:35:40.755Z,98592.91
2023-03-01T02:38:13.851Z,98591.44
2023-03-01T02:40:46.970Z,98586.50
2023-03-01T02:43:23.176Z,98586.28
2023-03-01T02:46:05.955Z,98585.00
2023-03-01T02:48:45.983Z,98575.53
2023-03-01T02:51:36.180Z,98570.63
2023-03-01T02:54:20.055Z,98574.88
2023-03-01T02:56:53.891Z,98575.66
2023-03-01T02:59:31.419Z,98562.28
2023-03-01T03:02:05.695Z,98568.22
2023-03-01T03:04:38.886Z,98559.59
2023-03-01T03:07:11.811Z,98558.81
2023-03-01T03:09:44.731Z,98551.16
2023-03-01T03:12:17.667Z,98557.84
2023-03-01T03:14:50.613Z,98549.66
2023-03-01T03:17:25.406Z,98547.88
2023-03-01T03:19:58.356Z,98534.88
2023-03-01T03:22:31.415Z,98532.38
2023-03-01T03:25:04.557Z,98527.03
2023-03-01T03:27:37.531Z,98534.88
2023-03-01T03:30:14.617Z,98537.81
2023-03-01T03:32:53.279Z,98535.44
2023-03-01T03:35:31.065Z,98539.81
2023-03-01T03:38:07.719Z,98537.50
2023-03-01T03:40:43.562Z,98536.44
2023-03-01T03:43:19.830Z,98533.59
2023-03-01T03:45:55.002Z,98531.06
2023-03-01T03:48:29.848Z,98535.59
2023-03-01T03:51:02.957Z,98524.59
2023-03-01T03:53:36.479Z,98526.63
2023-03-01T03:56:09.950Z,98529.19
2023-03-01T03:58:43.147Z,98520.09
2023-03-01T04:01:16.362Z,98520.75
2023-03-01T04:03:55.369Z,98511.34
2023-03-01T04:06:28.816Z,98513.28
2023-03-01T04:09:03.975Z,98508.72
2023-03-01T04:11:37.012Z,98507.25
2023-03-01T04:14:10.098Z,98500.09
2023-03-01T04:16:43.306Z,98504.56
2023-03-01T04:19:17.678Z,98506.38
2023-03-01T04:21:50.966Z,98512.84
2023-03-01T04:24:23.982Z,98504.00
2023-03-01T04:26:57.012Z,98501.34
2023-03-01T04:29:30.499Z,98505.81
2023-03-01T04:32:04.059Z,98504.63
2023-03-01T04:34:38.852Z,98508.25
2023-03-01T04:37:11.887Z,98512.84
2023-03-01T04:39:46.693Z,98506.81
2023-03-01T04:42:20.635Z,98508.72
2023-03-01T04:44:53.823Z,98505.19
2023-03-01T04:47:26.849Z,98501.97
2023-03-01T04:50:01.304Z,98500.50
2023-03-01T04:52:34.436Z,98501.75
2023-03-01T04:55:09.188Z,98493.31
2023-03-01T04:57:42.349Z,98498.44
2023-03-01T05:00:22.969Z,98495.22
2023-03-01T05:02:58.420Z,98497.78
2023-03-01T05:05:36.100Z,98495.28
2023-03-01T05:08:18.341Z,98490.38
2023-03-01T05:10:53.944Z,98487.38
2023-03-01T05:13:27.215Z,98488.69
2023-03-01T05:16:02.987Z,98486.44
2023-03-01T05:18:36.510Z,98492.22
2023-03-01T05:21:13.464Z,98492.38
2023-03-01T05:23:47.867Z,98491.75
2023-03-01T05:26:28.930Z,98487.22
2023-03-01T05:29:02.141Z,98485.78
2023-03-01T05:31:35.210Z,98492.59
2023-03-01T05:34:08.433Z,98487.50
2023-03-01T05:36:42.900Z,98475.75
2023-03-01T05:39:15.916Z,98486.41
2023-03-01T05:41:49.067Z,98488.13
2023-03-01T05:44:22.771Z,98481.06
2023-03-01T05:46:57.392Z,98488.22
2023-03-01T05:49:31.165Z,98480.47
2023-03-01T05:52:05.825Z,98473.81
2023-03-01T05:54:39.671Z,98474.00
2023-03-01T05:57:12.829Z,98479.91
2023-03-01T05:59:45.905Z,98476.38
2023-03-01T06:02:19.561Z,98475.13
2023-03-01T06:04:53.099Z,98483.13
2023-03-01T06:07:27.746Z,98477.53
2023-03-01T06:10:00.937Z,98474.03
2023-03-01T06:12:34.890Z,98477.13
2023-03-01T06:15:10.799Z,98483.28
2023-03-01T06:17:46.920Z,98483.97
2023-03-01T06:20:22.539Z,98480.56
2023-03-01T06:22:57.268Z,98484.72
2023-03-01T06:25:30.401Z,98483.81
2023-03-01T06:28:03.475Z,98479.91
2023-03-01T06:30:36.647Z,98483.09
2023-03-01T06:33:09.742Z,98475.72
2023-03-01T06:35:42.854Z,98476.44
2023-03-01T06:38:19.575Z,98479.00
2023-03-01T06:40:57.498Z,98473.66
2023-03-01T06:43:30.589Z,98475.59
2023-03-01T06:46:07.746Z,98475.97
2023-03-01T06:48:40.829Z,98479.16
2023-03-01T06:51:13.876Z,98491.31
2023-03-01T06:53:49.639Z,98480.81
2023-03-01T06:56:22.677Z,98477.97
2023-03-01T06:58:55.716Z,98482.19
2023-03-01T07:01:28.869Z,98486.72
2023-03-01T07:04:01.912Z,98486.81
2023-03-01T07:06:35.209Z,98487.34
2023-03-01T07:09:09.691Z,98474.34
2023-03-01T07:11:43.193Z,98475.72
2023-03-01T07:14:16.333Z,98480.28
2023-03-01T07:16:49.396Z,98475.56
2023-03-01T07:19:23.146Z,98472.91
2023-03-01T07:21:56.858Z,98488.63
2023-03-01T07:24:31.280Z,98478.53
2023-03-01T07:27:04.770Z,98472.59
2023-03-01T07:29:38.370Z,98471.50
2023-03-01T07:32:12.999Z,98459.59
2023-03-01T07:34:46.119Z,98466.63
2023-03-01T07:37:19.212Z,98460.50
2023-03-01T07:39:53.582Z,98456.25
2023-03-01T07:42:26.779Z,98452.97
2023-03-01T07:44:59.816Z,98460.09
2023-03-01T07:47:33.518Z,98449.69
2023-03-01T07:50:07.798Z,98445.47
2023-03-01T07:52:40.999Z,98453.19
2023-03-01T07:55:15.789Z,98443.91
2023-03-01T07:57:48.882Z,98441.69
2023-03-01T08:00:22.539Z,98440.38
2023-03-01T08:02:55.699Z,98447.03
2023-03-01T08:05:28.987Z,98433.16
2023-03-01T08:08:02.033Z,98430.03
2023-03-01T08:10:36.413Z,98441.00
2023-03-01T08:13:09.510Z,98425.66
2023-03-01T08:15:42.566Z,98435.09
2023-03-01T08:18:15.605Z,98440.69
2023-03-01T08:20:49.502Z,98443.13
2023-03-01T08:23:22.793Z,98431.66
2023-03-01T08:25:57.379Z,98435.91
2023-03-01T08:28:30.442Z,98428.31
2023-03-01T08:31:04.047Z,98426.84
2023-03-01T08:33:37.135Z,98415.22
2023-03-01T08:36:10.390Z,98422.00
2023-03-01T08:38:43.448Z,98416.41
2023-03-01T08:41:17.853Z,98425.50
2023-03-01T08:43:51.863Z,98418.72
2023-03-01T08:46:25.006Z,98423.13
2023-03-01T08:48:58.558Z,98421.16
2023-03-01T08:51:33.550Z,98414.06
2023-03-01T08:54:07.803Z,98411.09
2023-03-01T08:56:42.647Z,98409.66
2023-03-01T08:59:18.160Z,98398.44
2023-03-01T09:01:51.265Z,98401.25
2023-03-01T09:04:24.803Z,98403.78
2023-03-01T09:06:57.837Z,98384.91
2023-03-01T09:09:30.925Z,98389.75
2023-03-01T09:12:06.089Z,98377.81
2023-03-01T09:14:39.847Z,98380.31
2023-03-01T09:17:13.122Z,98380.69
2023-03-01T09:19:46.333Z,98372.22
2023-03-01T09:22:19.442Z,98374.69
2023-03-01T09:24:52.564Z,98374.25
2023-03-01T09:27:27.233Z,98371.19
2023-03-01T09:30:00.286Z,98351.59
2023-03-01T09:32:33.931Z,98351.00
2023-03-01T09:35:08.533Z,98356.81
2023-03-01T09:37:43.887Z,98358.09
2023-03-01T09:40:21.530Z,98347.97
2023-03-01T09:43:04.361Z,98349.03
2023-03-01T09:45:40.462Z,98346.50
2023-03-01T09:48:19.719Z,98343.69
2023-03-01T09:50:53.822Z,98336.59
2023-03-01T09:53:36.099Z,98328.22
2023-03-01T09:56:21.955Z,98329.97
2023-03-01T09:59:07.441Z,98330.50
2023-03-01T10:01:48.716Z,98318.28
2023-03-01T10:04:43.592Z,98323.13
2023-03-01T10:07:30.373Z,98317.50
2023-03-01T10:10:05.621Z,98305.72
2023-03-01T10:12:42.727Z,98306.88
2023-03-01T10:15:23.120Z,98297.47
2023-03-01T10:18:04.093Z,98289.63
2023-03-01T10:20:48.843Z,98290.38
2023-03-01T10:23:22.102Z,98293.06
2023-03-01T10:26:12.913Z,98288.00
2023-03-01T10:28:56.535Z,98292.81
2023-03-01T10:31:41.456Z,98299.94
2023-03-01T10:34:18.462Z,98301.78
2023-03-01T10:36:53.551Z,98287.88
2023-03-01T10:39:28.486Z,98282.94
2023-03-01T10:42:04.182Z,98287.06
2023-03-01T10:44:45.318Z,98284.78
2023-03-01T10:47:26.609Z,98271.38
2023-03-01T10:50:05.454Z,98275.00
2023-03-01T10:52:40.119Z,98274.09
2023-03-01T10:55:30.322Z,98264.81
2023-03-01T10:58:14.269Z,98261.88
2023-03-01T11:00:53.751Z,98258.13
2023-03-01T11:03:30.771Z,98259.31
2023-03-01T11:06:14.750Z,98256.09
2023-03-01T11:08:50.049Z,98245.28
2023-03-01T11:11:33.673Z,98250.47
2023-03-01T11:14:26.429Z,98244.97
2023-03-01T11:17:04.066Z,98236.22
2023-03-01T11:19:38.412Z,98230.16
2023-03-01T11:22:16.384Z,98227.56
2023-03-01T11:25:03.561Z,98231.81
2023-03-01T11:27:46.675Z,98228.19
2023-03-01T11:30:25.463Z,98223.94
2023-03-01T11:33:12.954Z,98224.69
2023-03-01T11:35:57.661Z,98219.50
2023-03-01T11:38:35.830Z,98213.16
2023-03-01T11:41:15.523Z,98207.16
2023-03-01T11:43:55.025Z,98194.53
2023-03-01T11:47:01.284Z,98205.03
2023-03-01T11:50:00.849Z,98194.22
2023-03-01T11:52:50.843Z,98193.75
2023-03-01T11:56:01.283Z,98184.50
2023-03-01T11:58:53.592Z,98182.88
2023-03-01T12:01:53.827Z,98180.47
2023-03-01T12:05:05.217Z,98173.09
2023-03-01T12:07:48.829Z,98167.88
2023-03-01T12:10:29.296Z,98164.44
2023-03-01T12:13:30.314Z,98156.16
2023-03-01T12:16:38.324Z,98158.41
2023-03-01T12:19:41.480Z,98143.88
2023-03-01T12:22:31.621Z,98130.06
2023-03-01T12:25:28.702Z,98126.09
2023-03-01T12:28:17.628Z,98120.56
2023-03-01T12:31:31.269Z,98116.84
2023-03-01T12:34:22.214Z,98120.59
2023-03-01T12:37:26.057Z,98105.53
2023-03-01T12:40:24.158Z,98096.81
2023-03-01T12:43:11.273Z,98096.84
2023-03-01T12:45:59.917Z,98089.63
2023-03-01T12:48:45.135Z,98092.63
2023-03-01T12:51:21.585Z,98084.09
2023-03-01T12:53:58.319Z,98074.75
2023-03-01T12:56:38.895Z,98078.72
2023-03-01T12:59:20.962Z,98064.81
2023-03-01T13:01:59.078Z,98071.78
2023-03-01T13:04:47.055Z,98063.72
2023-03-01T13:07:32.247Z,98055.09
2023-03-01T13:10:25.351Z,98066.13
2023-03-01T13:13:20.597Z,98067.47
2023-03-01T13:15:55.118Z,98065.59
2023-03-01T13:18:33.846Z,98071.88
2023-03-01T13:21:08.185Z,98066.38
2023-03-01T13:23:42.571Z,98066.28
2023-03-01T13:26:18.170Z,98073.56
2023-03-01T13:28:58.935Z,98055.56
2023-03-01T13:32:04.591Z,98068.81
2023-03-01T13:34:58.701Z,98067.69
2023-03-01T13:37:40.509Z,98063.19
2023-03-01T13:40:59.907Z,98061.19
2023-03-01T13:43:36.889Z,98064.81
2023-03-01T13:46:17.877Z,98060.72
2023-03-01T13:48:54.614Z,98063.16
2023-03-01T13:51:30.067Z,98046.63
2023-03-01T13:54:03.176Z,98057.84
2023-03-01T13:56:39.578Z,98047.31
2023-03-01T13:59:20.049Z,98030.97
2023-03-01T14:02:00.630Z,98040.66
2023-03-01T14:04:36.842Z,98036.50
2023-03-01T14:07:15.245Z,98050.31
2023-03-01T14:09:53.457Z,98049.03
2023-03-01T14:12:42.138Z,98055.03
2023-03-01T14:15:22.080Z,98056.56
2023-03-01T14:18:02.311Z,98060.03
2023-03-01T14:20:41.166Z,98066.44
2023-03-01T14:23:17.906Z,98076.03
2023-03-01T14:25:53.520Z,98070.41
2023-03-01T14:28:29.304Z,98065.03
2023-03-01T14:31:03.830Z,98069.00
2023-03-01T14:33:42.139Z,98068.56
2023-03-01T14:36:15.820Z,98071.28
2023-03-01T14:38:49.891Z,98072.53
2023-03-01T14:41:26.612Z,98075.53
2023-03-01T14:44:03.495Z,98084.38
2023-03-01T14:46:39.704Z,98077.31
2023-03-01T14:49:17.720Z,98066.25
2023-03-01T14:51:56.828Z,98059.38
2023-03-01T14:54:43.096Z,98069.63
2023-03-01T14:57:19.264Z,98065.88
2023-03-01T14:59:55.491Z,98064.09
2023-03-01T15:02:30.910Z,98067.16
2023-03-01T15:05:09.049Z,98060.03
2023-03-01T15:07:49.707Z,98064.47
2023-03-01T15:10:25.994Z,98059.06
2023-03-01T15:13:12.630Z,98073.97
2023-03-01T15:15:47.558Z,98060.41
2023-03-01T15:18:24.792Z,98065.38
2023-03-01T15:21:10.255Z,98057.09
2023-03-01T15:23:43.596Z,98068.47
2023-03-01T15:26:26.662Z,98068.31
2023-03-01T15:29:01.881Z,98060.28
2023-03-01T15:31:40.570Z,98063.88
2023-03-01T15:34:25.879Z,98061.00
2023-03-01T15:37:03.236Z,98057.28
2023-03-01T15:39:40.832Z,98065.84
2023-03-01T15:42:17.714Z,98052.97
2023-03-01T15:44:50.865Z,98042.59
2023-03-01T15:47:30.524Z,98039.25
2023-03-01T15:50:04.301Z,98035.50
2023-03-01T15:52:43.856Z,98028.09
2023-03-01T15:55:20.342Z,98025.84
2023-03-01T15:58:02.514Z,98026.31
2023-03-01T16:00:35.725Z,98013.88
2023-03-01T16:03:10.051Z,98019.44
2023-03-01T16:05:43.164Z,98013.25
2023-03-01T16:08:17.982Z,98017.19
2023-03-01T16:10:52.505Z,98014.50
2023-03-01T16:13:27.712Z,98017.91
2023-03-01T16:16:02.132Z,98006.81
2023-03-01T16:18:35.252Z,98009.03
2023-03-01T16:21:08.454Z,97999.13
2023-03-01T16:23:42.810Z,97998.69
2023-03-01T16:26:16.429Z,97998.78
2023-03-01T16:28:49.982Z,98002.78
2023-03-01T16:31:23.227Z,98004.13
2023-03-01T16:33:57.661Z,98004.72
2023-03-01T16:36:30.664Z,98015.75
2023-03-01T16:39:05.494Z,98014.75
2023-03-01T16:41:38.564Z,98022.31
2023-03-01T16:44:11.630Z,98023.94
2023-03-01T16:46:44.915Z,98038.53
2023-03-01T16:49:18.043Z,98047.94
2023-03-01T16:51:51.237Z,98035.13
2023-03-01T16:54:25.658Z,98053.47
2023-03-01T16:56:58.947Z,98059.09
2023-03-01T16:59:32.152Z,98053.56
2023-03-01T17:02:06.905Z,98057.84
2023-03-01T17:04:40.252Z,98068.78
2023-03-01T17:07:13.560Z,98063.59
2023-03-01T17:09:48.277Z,98067.84
2023-03-01T17:12:21.403Z,98074.38
2023-03-01T17:14:54.508Z,98073.56
2023-03-01T17:17:27.864Z,98080.44
2023-03-01T17:20:02.932Z,98081.50
2023-03-01T17:22:37.669Z,98087.19
2023-03-01T17:25:13.247Z,98087.19
2023-03-01T17:27:46.470Z,98088.72
2023-03-01T17:30:19.952Z,98083.47
2023-03-01T17:32:56.006Z,98087.56
2023-03-01T17:35:29.236Z,98093.28
2023-03-01T17:38:02.298Z,98099.88
2023-03-01T17:40:39.916Z,98103.59
2023-03-01T17:43:13.539Z,98108.31
2023-03-01T17:45:48.796Z,98106.81
2023-03-01T17:48:22.010Z,98100.16
2023-03-01T17:50:55.940Z,98098.38
2023-03-01T17:53:30.004Z,98108.59
2023-03-01T17:56:08.196Z,98101.13
2023-03-01T17:58:41.357Z,98096.31
2023-03-01T18:01:17.125Z,98105.09
2023-03-01T18:03:53.225Z,98105.38
2023-03-01T18:06:28.246Z,98106.91
2023-03-01T18:09:01.893Z,98102.75
2023-03-01T18:11:37.366Z,98113.78
2023-03-01T18:14:10.495Z,98110.22
2023-03-01T18:16:43.697Z,98112.88
2023-03-01T18:19:16.785Z,98113.50
2023-03-01T18:21:49.874Z,98114.50
2023-03-01T18:24:22.981Z,98114.63
2023-03-01T18:26:57.418Z,98118.00
2023-03-01T18:29:30.707Z,98118.88
2023-03-01T18:32:04.015Z,98124.56
2023-03-01T18:34:37.198Z,98129.31
2023-03-01T18:37:10.472Z,98129.88
2023-03-01T18:39:43.652Z,98130.03
2023-03-01T18:42:20.419Z,98126.69
2023-03-01T18:44:53.929Z,98115.06
2023-03-01T18:47:27.120Z,98122.63
2023-03-01T18:50:00.319Z,98128.81
2023-03-01T18:52:33.514Z,98122.16
2023-03-01T18:55:07.453Z,98127.94
2023-03-01T18:57:41.913Z,98124.72
2023-03-01T19:00:18.593Z,98118.53
2023-03-01T19:02:51.744Z,98121.66
2023-03-01T19:05:24.905Z,98122.50
2023-03-01T19:07:58.251Z,98116.94
2023-03-01T19:10:31.808Z,98113.22
2023-03-01T19:13:06.214Z,98114.94
2023-03-01T19:15:39.542Z,98112.84
2023-03-01T19:18:12.597Z,98120.88
2023-03-01T19:20:46.833Z,98114.06
2023-03-01T19:23:21.658Z,98110.03
2023-03-01T19:26:01.193Z,98108.06
2023-03-01T19:28:39.247Z,98101.94
2023-03-01T19:31:16.655Z,98096.56
2023-03-01T19:33:50.212Z,98093.19
2023-03-01T19:36:32.774Z,98092.16
2023-03-01T19:39:08.360Z,98090.38
2023-03-01T19:41:41.909Z,98095.34
2023-03-01T19:44:16.271Z,98092.06
2023-03-01T19:46:49.372Z,98091.84
2023-03-01T19:49:22.742Z,98087.91
2023-03-01T19:51:55.801Z,98088.06
2023-03-01T19:54:28.897Z,98084.22
2023-03-01T19:57:02.032Z,98091.91
2023-03-01T19:59:36.766Z,98094.72
2023-03-01T20:02:12.239Z,98084.50
2023-03-01T20:04:45.416Z,98089.81
2023-03-01T20:07:19.668Z,98087.69
2023-03-01T20:09:53.104Z,98086.00
2023-03-01T20:12:26.304Z,98089.88
2023-03-01T20:15:00.878Z,98085.16
2023-03-01T20:17:33.943Z,98088.28
2023-03-01T20:20:08.124Z,98080.28
2023-03-01T20:22:41.628Z,98083.19
2023-03-01T20:25:14.745Z,98083.09
2023-03-01T20:27:47.852Z,98082.22
2023-03-01T20:30:22.451Z,98079.13
2023-03-01T20:32:55.544Z,98083.41
2023-03-01T20:35:32.000Z,98081.94
2023-03-01T20:38:05.304Z,98074.84
2023-03-01T20:40:39.053Z,98074.56
2023-03-01T20:43:12.163Z,98072.44
2023-03-01T20:45:46.626Z,98068.34
2023-03-01T20:48:19.681Z,98077.09
2023-03-01T20:50:52.722Z,98079.91
2023-03-01T20:53:25.961Z,98077.50
2023-03-01T20:56:03.847Z,98082.97
2023-03-01T20:58:36.957Z,98076.72
2023-03-01T21:01:14.704Z,98074.53
2023-03-01T21:03:48.966Z,98076.84
2023-03-01T21:06:22.083Z,98072.94
2023-03-01T21:08:55.789Z,98074.25
2023-03-01T21:11:29.022Z,98081.81
2023-03-01T21:14:02.244Z,98079.22
2023-03-01T21:16:37.117Z,98078.56
2023-03-01T21:19:11.066Z,98075.59
2023-03-01T21:21:44.170Z,98075.69
2023-03-01T21:24:17.280Z,98069.50
2023-03-01T21:26:50.356Z,98067.84
2023-03-01T21:29:23.610Z,98066.69
2023-03-01T21:31:58.059Z,98070.19
2023-03-01T21:34:31.145Z,98061.84
2023-03-01T21:37:05.780Z,98065.88
2023-03-01T21:39:39.383Z,98066.75
2023-03-01T21:42:12.455Z,98052.09
2023-03-01T21:44:45.541Z,98060.13
2023-03-01T21:47:19.954Z,98059.41
2023-03-01T21:49:53.037Z,98055.88
2023-03-01T21:52:26.140Z,98054.69
2023-03-01T21:55:01.960Z,98056.97
2023-03-01T21:57:34.999Z,98050.19
2023-03-01T22:00:10.645Z,98053.25
2023-03-01T22:02:45.101Z,98053.47
2023-03-01T22:05:18.367Z,98050.88
2023-03-01T22:07:51.853Z,98062.44
2023-03-01T22:10:27.238Z,98043.84
2023-03-01T22:13:00.876Z,98044.94
2023-03-01T22:15:33.918Z,98043.78
2023-03-01T22:18:08.674Z,98046.50
2023-03-01T22:20:42.248Z,98049.16
2023-03-01T22:23:15.296Z,98044.06
2023-03-01T22:25:48.341Z,98039.06
2023-03-01T22:28:21.445Z,98046.63
2023-03-01T22:30:54.722Z,98044.25
2023-03-01T22:33:29.174Z,98042.25
2023-03-01T22:36:02.340Z,98042.25
2023-03-01T22:38:35.483Z,98042.72
2023-03-01T22:41:08.706Z,98044.81
2023-03-01T22:43:42.055Z,98042.88
2023-03-01T22:46:19.296Z,98049.91
2023-03-01T22:48:53.792Z,98048.69
2023-03-01T22:51:30.124Z,98038.31
2023-03-01T22:54:03.696Z,98041.47
2023-03-01T22:56:38.653Z,98037.50
2023-03-01T22:59:14.972Z,98033.31
2023-03-01T23:01:48.583Z,98033.72
2023-03-01T23:04:24.278Z,98026.28
2023-03-01T23:06:58.156Z,98033.53
2023-03-01T23:09:34.342Z,98025.75
2023-03-01T23:12:09.279Z,98030.66
2023-03-01T23:14:42.375Z,98033.63
2023-03-01T23:17:15.486Z,98025.69
2023-03-01T23:19:51.443Z,98036.53
2023-03-01T23:22:25.085Z,98033.00
2023-03-01T23:24:58.142Z,98034.88
2023-03-01T23:27:31.497Z,98025.47
2023-03-01T23:30:05.212Z,98034.16
2023-03-01T23:32:40.727Z,98034.16
2023-03-01T23:35:15.248Z,98028.50
2023-03-01T23:37:48.346Z,98031.97
2023-03-01T23:40:21.574Z,98033.72
2023-03-01T23:42:54.577Z,98027.59
2023-03-01T23:45:27.709Z,98023.16
2023-03-01T23:48:00.789Z,98024.41
2023-03-01T23:50:42.002Z,98025.22
2023-03-01T23:53:18.982Z,98009.47
2023-03-01T23:55:55.344Z,98022.41
2023-03-01T23:58:29.312Z,98027.38
